KAIK/AIK METAR and TAF weather

Enter ICAO airport designator
Station Type Date Time Source
KAIK METAR 2021/07/26 13:55 UTC NOAA

KAIK 261355Z AUTO 21003KT 10SM CLR 28/23 A3004 RMK AO2 T02800233


Station Type Date Time Source
KAIK Decoded METAR 2021/07/26 13:55 UTC NOAA

Station name not available
Jul 26, 2021 - 09:55 AM EDT / 2021.07.26 1355 UTC
Wind: from the SSW (210 degrees) at 3 MPH (3 KT):0
Visibility: 10 mile(s):0
Sky conditions: clear
Temperature: 82.4 F (28.0 C)
Dew Point: 73.9 F (23.3 C)
Relative Humidity: 75%
Pressure (altimeter): 30.04 in. Hg (1017 hPa)
ob: KAIK 261355Z AUTO 21003KT 10SM CLR 28/23 A3004 RMK AO2 T02800233
cycle: 14

Station Type Date Time Source
KAIK TAF UTC NOAA

Error!

Example: see airport list